Fort Myers Beach, Florida
Current Conditions -  °F | °C
As of 1:53 AM on Friday 28 Nov 2014 (Local Time) from KFMY Reporting Station
Clear Clear  
Wind Chill: 52°   Ceiling: Unl
Heat Index: 52°   Visibility: 10mi
Dew Point: 40°   Wind: 15mph
Humidity: 63%   Direction: 20°NNE
Pressure: 30.24"   Gusts: NA
Location:  26.45°N, 81.94°W
Report Text: KFMY 280653Z AUTO 02013KT 10SM CLR 11/04 A3024 RMK AO2 SLP242 T01110044
Loading
Personal Weather Stations






























Interactive Weather Map New forecast layout! Learn more

10-Day Weather Forecast

Advertisements
Track Severe Weather on mobile